createdAt,value
2022-12-23T00:00:28.091Z,9.44
2022-12-23T00:02:54.792Z,9.45
2022-12-23T00:05:21.475Z,9.44
2022-12-23T00:07:48.303Z,9.41
2022-12-23T00:10:14.913Z,9.42
2022-12-23T00:13:00.292Z,9.42
2022-12-23T00:15:26.806Z,9.43
2022-12-23T00:17:53.316Z,9.44
2022-12-23T00:20:19.970Z,9.45
2022-12-23T00:23:04.912Z,9.47
2022-12-23T00:25:41.137Z,9.47
2022-12-23T00:28:07.724Z,9.48
2022-12-23T00:30:34.316Z,9.50
2022-12-23T00:33:00.877Z,9.50
2022-12-23T00:35:29.481Z,9.48
2022-12-23T00:37:56.048Z,9.49
2022-12-23T00:40:41.056Z,9.48
2022-12-23T00:43:07.651Z,9.46
2022-12-23T00:45:34.289Z,9.46
2022-12-23T00:48:19.547Z,9.47
2022-12-23T00:50:46.124Z,9.46
2022-12-23T00:53:12.675Z,9.47
2022-12-23T00:55:39.170Z,9.46
2022-12-23T00:58:05.946Z,9.46
2022-12-23T01:00:51.128Z,9.46
2022-12-23T01:03:36.378Z,9.46
2022-12-23T01:06:03.347Z,9.47
2022-12-23T01:08:31.188Z,9.47
2022-12-23T01:11:02.077Z,9.48
2022-12-23T01:13:28.656Z,9.49
2022-12-23T01:16:05.454Z,9.51
2022-12-23T01:18:32.109Z,9.49
2022-12-23T01:21:02.838Z,9.46
2022-12-23T01:23:29.556Z,9.45
2022-12-23T01:25:59.403Z,9.36
2022-12-23T01:28:26.097Z,9.36
2022-12-23T01:30:52.679Z,9.38
2022-12-23T01:33:19.239Z,9.42
2022-12-23T01:35:45.961Z,9.44
2022-12-23T01:38:12.502Z,9.46
2022-12-23T01:40:43.080Z,9.47
2022-12-23T01:43:18.961Z,9.49
2022-12-23T01:45:45.613Z,9.48
2022-12-23T01:48:22.764Z,9.49
2022-12-23T01:50:49.268Z,9.46
2022-12-23T01:53:20.098Z,9.40
2022-12-23T01:55:51.641Z,9.44
2022-12-23T01:58:19.498Z,9.46
2022-12-23T02:01:04.857Z,9.47
2022-12-23T02:03:43.942Z,9.50
2022-12-23T02:06:32.375Z,9.51
2022-12-23T02:09:17.122Z,9.51
2022-12-23T02:11:47.783Z,9.52
2022-12-23T02:14:36.800Z,9.51
2022-12-23T02:17:07.901Z,9.52
2022-12-23T02:19:40.162Z,9.51
2022-12-23T02:22:09.718Z,9.52
2022-12-23T02:24:42.634Z,9.52
2022-12-23T02:27:10.277Z,9.54
2022-12-23T02:29:52.351Z,9.54
2022-12-23T02:32:29.117Z,9.55
2022-12-23T02:34:56.290Z,9.55
2022-12-23T02:37:24.780Z,9.55
2022-12-23T02:40:10.132Z,9.57
2022-12-23T02:42:37.494Z,9.59
2022-12-23T02:45:11.530Z,9.60
2022-12-23T02:47:40.422Z,9.63
2022-12-23T02:50:10.982Z,9.64
2022-12-23T02:52:37.712Z,9.65
2022-12-23T02:55:12.524Z,9.67
2022-12-23T02:57:40.183Z,9.71
2022-12-23T03:00:07.147Z,9.71
2022-12-23T03:02:37.487Z,9.72
2022-12-23T03:05:04.365Z,9.73
2022-12-23T03:07:35.291Z,9.74
2022-12-23T03:10:16.547Z,9.75
2022-12-23T03:12:49.149Z,9.76
2022-12-23T03:15:23.239Z,9.80
2022-12-23T03:17:49.921Z,9.80
2022-12-23T03:20:25.644Z,9.81
2022-12-23T03:22:52.200Z,9.82
2022-12-23T03:25:24.129Z,9.84
2022-12-23T03:27:53.135Z,9.87
2022-12-23T03:30:20.192Z,9.89
2022-12-23T03:32:51.659Z,9.90
2022-12-23T03:35:19.372Z,9.91
2022-12-23T03:37:46.666Z,9.93
2022-12-23T03:40:33.477Z,9.95
2022-12-23T03:43:01.555Z,9.95
2022-12-23T03:45:44.989Z,9.96
2022-12-23T03:48:17.035Z,9.95
2022-12-23T03:50:43.636Z,9.96
2022-12-23T03:53:20.821Z,9.97
2022-12-23T03:55:49.265Z,9.99
2022-12-23T03:58:21.703Z,9.99
2022-12-23T04:00:50.733Z,9.99
2022-12-23T04:03:18.820Z,10.03
2022-12-23T04:05:46.962Z,10.04
2022-12-23T04:08:16.339Z,10.06
2022-12-23T04:10:43.088Z,10.07
2022-12-23T04:13:09.578Z,10.06
2022-12-23T04:15:39.200Z,10.06
2022-12-23T04:18:05.803Z,10.09
2022-12-23T04:20:32.493Z,10.09
2022-12-23T04:22:59.083Z,10.10
2022-12-23T04:25:25.622Z,10.09
2022-12-23T04:27:52.213Z,10.10
2022-12-23T04:30:18.872Z,10.11
2022-12-23T04:32:45.490Z,10.10
2022-12-23T04:35:12.503Z,10.10
2022-12-23T04:37:39.090Z,10.09
2022-12-23T04:40:06.179Z,10.08
2022-12-23T04:42:32.728Z,10.06
2022-12-23T04:44:59.359Z,10.06
2022-12-23T04:47:26.067Z,10.05
2022-12-23T04:49:52.589Z,10.03
2022-12-23T04:52:19.130Z,10.03
2022-12-23T04:54:46.498Z,10.01
2022-12-23T04:57:13.516Z,10.02
2022-12-23T04:59:40.101Z,10.02
2022-12-23T05:02:07.935Z,10.02
2022-12-23T05:04:34.715Z,10.03
2022-12-23T05:07:01.299Z,10.05
2022-12-23T05:09:27.899Z,10.05
2022-12-23T05:11:54.645Z,10.05
2022-12-23T05:14:21.232Z,10.05
2022-12-23T05:16:47.906Z,10.04
2022-12-23T05:19:14.595Z,10.04
2022-12-23T05:21:41.220Z,10.04
2022-12-23T05:24:07.788Z,10.03
2022-12-23T05:26:34.534Z,10.03
2022-12-23T05:29:01.104Z,10.02
2022-12-23T05:31:27.836Z,10.02
2022-12-23T05:33:54.578Z,10.03
2022-12-23T05:36:21.179Z,10.02
2022-12-23T05:38:48.408Z,10.03
2022-12-23T05:41:15.792Z,10.03
2022-12-23T05:43:42.557Z,10.00
2022-12-23T05:46:09.194Z,9.97
2022-12-23T05:48:35.867Z,10.02
2022-12-23T05:51:02.438Z,10.02
2022-12-23T05:53:29.026Z,10.03
2022-12-23T05:55:55.645Z,10.03
2022-12-23T05:58:22.317Z,10.04
2022-12-23T06:00:49.044Z,10.03
2022-12-23T06:03:15.824Z,10.03
2022-12-23T06:05:43.751Z,10.02
2022-12-23T06:08:10.350Z,10.02
2022-12-23T06:10:36.973Z,10.03
2022-12-23T06:13:03.584Z,10.02
2022-12-23T06:15:30.203Z,10.02
2022-12-23T06:17:56.872Z,10.02
2022-12-23T06:20:23.449Z,10.02
2022-12-23T06:22:50.126Z,10.02
2022-12-23T06:25:16.768Z,10.02
2022-12-23T06:27:43.450Z,10.03
2022-12-23T06:30:10.379Z,10.02
2022-12-23T06:32:38.791Z,9.99
2022-12-23T06:35:06.282Z,10.00
2022-12-23T06:37:32.842Z,9.98
2022-12-23T06:39:59.471Z,9.97
2022-12-23T06:42:26.033Z,9.98
2022-12-23T06:44:52.561Z,9.98
2022-12-23T06:47:19.068Z,9.97
2022-12-23T06:49:45.629Z,9.98
2022-12-23T06:52:12.205Z,9.97
2022-12-23T06:54:38.753Z,9.97
2022-12-23T06:57:05.234Z,9.98
2022-12-23T06:59:32.065Z,9.96
2022-12-23T07:01:58.739Z,9.98
2022-12-23T07:04:25.586Z,9.98
2022-12-23T07:06:52.145Z,9.97
2022-12-23T07:09:18.698Z,9.96
2022-12-23T07:11:45.446Z,9.96
2022-12-23T07:14:12.003Z,9.95
2022-12-23T07:16:38.625Z,9.94
2022-12-23T07:19:05.276Z,9.95
2022-12-23T07:21:31.966Z,9.93
2022-12-23T07:23:58.557Z,9.95
2022-12-23T07:26:25.166Z,9.95
2022-12-23T07:28:51.822Z,9.95
2022-12-23T07:31:18.856Z,9.96
2022-12-23T07:33:45.758Z,9.96
2022-12-23T07:36:13.223Z,9.97
2022-12-23T07:38:40.045Z,9.97
2022-12-23T07:41:06.547Z,9.98
2022-12-23T07:43:33.062Z,9.98
2022-12-23T07:46:00.954Z,9.99
2022-12-23T07:48:27.962Z,9.99
2022-12-23T07:50:59.903Z,9.99
2022-12-23T07:53:26.400Z,9.99
2022-12-23T07:55:56.425Z,10.02
2022-12-23T07:58:23.487Z,10.03
2022-12-23T08:00:50.193Z,10.03
2022-12-23T08:03:16.796Z,10.03
2022-12-23T08:05:43.420Z,10.05
2022-12-23T08:08:10.140Z,10.05
2022-12-23T08:10:38.237Z,10.05
2022-12-23T08:13:06.896Z,10.07
2022-12-23T08:15:33.417Z,10.08
2022-12-23T08:18:00.098Z,10.10
2022-12-23T08:20:26.703Z,10.11
2022-12-23T08:22:53.198Z,10.12
2022-12-23T08:25:19.690Z,10.12
2022-12-23T08:27:46.318Z,10.13
2022-12-23T08:30:12.894Z,10.15
2022-12-23T08:32:39.654Z,10.16
2022-12-23T08:35:06.322Z,10.17
2022-12-23T08:37:32.880Z,10.18
2022-12-23T08:39:59.507Z,10.18
2022-12-23T08:42:26.068Z,10.19
2022-12-23T08:44:52.619Z,10.19
2022-12-23T08:47:19.116Z,10.21
2022-12-23T08:49:45.648Z,10.22
2022-12-23T08:52:12.713Z,10.20
2022-12-23T08:54:39.236Z,10.19
2022-12-23T08:57:05.723Z,10.20
2022-12-23T08:59:32.244Z,10.21
2022-12-23T09:01:59.806Z,10.23
2022-12-23T09:04:26.567Z,10.24
2022-12-23T09:06:53.231Z,10.26
2022-12-23T09:09:19.736Z,10.27
2022-12-23T09:11:46.235Z,10.28
2022-12-23T09:14:12.810Z,10.29
2022-12-23T09:16:39.305Z,10.32
2022-12-23T09:19:05.925Z,10.33
2022-12-23T09:21:32.661Z,10.34
2022-12-23T09:23:59.301Z,10.36
2022-12-23T09:26:27.202Z,10.38
2022-12-23T09:28:53.974Z,10.41
2022-12-23T09:31:20.748Z,10.42
2022-12-23T09:33:48.202Z,10.41
2022-12-23T09:36:14.833Z,10.43
2022-12-23T09:38:41.700Z,10.46
2022-12-23T09:41:17.198Z,10.48
2022-12-23T09:43:49.485Z,10.50
2022-12-23T09:46:20.659Z,10.50
2022-12-23T09:48:56.419Z,10.52
2022-12-23T09:51:23.217Z,10.53
2022-12-23T09:53:59.005Z,10.54
2022-12-23T09:56:25.882Z,10.56
2022-12-23T09:58:55.775Z,10.58
2022-12-23T10:01:44.784Z,10.60
2022-12-23T10:04:18.067Z,10.61
2022-12-23T10:06:45.072Z,10.64
2022-12-23T10:09:11.790Z,10.65
2022-12-23T10:11:40.366Z,10.64
2022-12-23T10:14:18.293Z,10.68
2022-12-23T10:16:45.503Z,10.69
2022-12-23T10:19:12.185Z,10.69
2022-12-23T10:21:48.014Z,10.69
2022-12-23T10:24:21.763Z,10.71
2022-12-23T10:26:54.126Z,10.72
2022-12-23T10:29:24.516Z,10.73
2022-12-23T10:31:51.021Z,10.73
2022-12-23T10:34:19.876Z,10.74
2022-12-23T10:37:01.149Z,10.75
2022-12-23T10:39:30.880Z,10.76
2022-12-23T10:42:03.310Z,10.76
2022-12-23T10:44:35.020Z,10.76
2022-12-23T10:47:10.454Z,10.75
2022-12-23T10:49:52.499Z,10.77
2022-12-23T10:52:19.884Z,10.77
2022-12-23T10:54:46.830Z,10.77
2022-12-23T10:57:15.381Z,10.77
2022-12-23T10:59:42.109Z,10.77
2022-12-23T11:02:11.788Z,10.76
2022-12-23T11:04:39.725Z,10.76
2022-12-23T11:07:42.042Z,10.75
2022-12-23T11:09:59.247Z,10.75
2022-12-23T11:12:26.261Z,10.74
2022-12-23T11:14:52.760Z,10.74
2022-12-23T11:17:21.640Z,10.75
2022-12-23T11:19:48.749Z,10.73
2022-12-23T11:22:22.178Z,10.74
2022-12-23T11:24:48.885Z,10.74
2022-12-23T11:27:16.276Z,10.74
2022-12-23T11:29:47.598Z,10.74
2022-12-23T11:32:34.734Z,10.74
2022-12-23T11:35:01.325Z,10.74
2022-12-23T11:37:37.999Z,10.73
2022-12-23T11:40:05.095Z,10.73
2022-12-23T11:42:31.674Z,10.73
2022-12-23T11:45:00.693Z,10.73
2022-12-23T11:47:31.486Z,10.73
2022-12-23T11:49:59.202Z,10.74
2022-12-23T11:52:29.928Z,10.73
2022-12-23T11:54:57.981Z,10.73
2022-12-23T11:57:32.317Z,10.73
2022-12-23T12:00:00.662Z,10.72
2022-12-23T12:02:27.142Z,10.73
2022-12-23T12:04:56.101Z,10.73
2022-12-23T12:07:22.857Z,10.72
2022-12-23T12:09:51.388Z,10.72
2022-12-23T12:12:19.647Z,10.74
2022-12-23T12:14:55.832Z,10.73
2022-12-23T12:17:27.645Z,10.73
2022-12-23T12:20:05.768Z,10.73
2022-12-23T12:22:34.151Z,10.73
2022-12-23T12:25:01.450Z,10.73
2022-12-23T12:27:38.373Z,10.73
2022-12-23T12:30:08.634Z,10.73
2022-12-23T12:32:40.597Z,10.74
2022-12-23T12:35:08.730Z,10.75
2022-12-23T12:37:39.749Z,10.75
2022-12-23T12:40:24.637Z,10.75
2022-12-23T12:42:53.201Z,10.75
2022-12-23T12:45:23.917Z,10.76
2022-12-23T12:48:02.100Z,10.76
2022-12-23T12:50:34.298Z,10.77
2022-12-23T12:53:03.893Z,10.77
2022-12-23T12:55:33.574Z,10.78
2022-12-23T12:58:02.394Z,10.78
2022-12-23T13:00:29.034Z,10.79
2022-12-23T13:03:05.521Z,10.80
2022-12-23T13:05:54.130Z,10.80
2022-12-23T13:08:31.302Z,10.81
2022-12-23T13:11:12.864Z,10.81
2022-12-23T13:13:45.300Z,10.81
2022-12-23T13:16:16.472Z,10.81
2022-12-23T13:18:59.986Z,10.82
2022-12-23T13:21:41.738Z,10.82
2022-12-23T13:24:20.187Z,10.81
2022-12-23T13:27:01.209Z,10.80
2022-12-23T13:29:33.467Z,10.81
2022-12-23T13:32:02.797Z,10.81
2022-12-23T13:34:29.309Z,10.81
2022-12-23T13:37:10.239Z,10.81
2022-12-23T13:39:51.008Z,10.81
2022-12-23T13:42:22.327Z,10.81
2022-12-23T13:44:48.906Z,10.81
2022-12-23T13:47:15.340Z,10.81
2022-12-23T13:50:01.159Z,10.82
2022-12-23T13:52:33.627Z,10.81
2022-12-23T13:55:12.121Z,10.82
2022-12-23T13:57:51.051Z,10.83
2022-12-23T14:00:17.695Z,10.82
2022-12-23T14:02:51.807Z,10.83
2022-12-23T14:05:29.935Z,10.83
2022-12-23T14:08:00.105Z,10.84
2022-12-23T14:10:27.028Z,10.84
2022-12-23T14:12:58.249Z,10.83
2022-12-23T14:15:25.002Z,10.84
2022-12-23T14:18:10.679Z,10.84
2022-12-23T14:20:37.322Z,10.83
2022-12-23T14:23:07.099Z,10.85
2022-12-23T14:25:39.909Z,10.85
2022-12-23T14:28:25.270Z,10.85
2022-12-23T14:30:52.013Z,10.89
2022-12-23T14:33:19.174Z,10.96
2022-12-23T14:35:45.675Z,10.97
2022-12-23T14:38:15.344Z,10.96
2022-12-23T14:40:42.019Z,11.00
2022-12-23T14:44:03.627Z,11.00
2022-12-23T14:46:35.541Z,10.97
2022-12-23T14:49:36.889Z,10.96
2022-12-23T14:51:51.868Z,10.94
2022-12-23T14:54:18.658Z,10.95
2022-12-23T14:56:54.308Z,10.94
2022-12-23T14:59:46.673Z,10.95
2022-12-23T15:02:18.058Z,10.94
2022-12-23T15:04:45.030Z,10.94
2022-12-23T15:07:31.790Z,10.94
2022-12-23T15:10:01.374Z,10.95
2022-12-23T15:12:32.245Z,10.96
2022-12-23T15:14:59.821Z,10.97
2022-12-23T15:17:27.657Z,10.98
2022-12-23T15:19:54.592Z,10.99
2022-12-23T15:22:28.445Z,11.01
2022-12-23T15:24:58.530Z,11.04
2022-12-23T15:27:28.292Z,11.04
2022-12-23T15:29:56.019Z,11.05
2022-12-23T15:32:23.581Z,11.05
2022-12-23T15:34:50.604Z,11.07
2022-12-23T15:37:17.591Z,11.08
2022-12-23T15:39:44.971Z,11.11
2022-12-23T15:42:21.700Z,11.13
2022-12-23T15:44:48.253Z,11.18
2022-12-23T15:47:29.182Z,11.16
2022-12-23T15:49:59.480Z,11.19
2022-12-23T15:52:26.805Z,11.20
2022-12-23T15:54:58.001Z,11.23
2022-12-23T15:57:26.207Z,11.27
2022-12-23T15:59:52.799Z,11.27
2022-12-23T16:02:58.890Z,11.33
2022-12-23T16:05:08.665Z,11.31
2022-12-23T16:07:36.687Z,11.35
2022-12-23T16:10:04.991Z,11.35
2022-12-23T16:12:32.001Z,11.35
2022-12-23T16:15:00.502Z,11.34
2022-12-23T16:17:36.087Z,11.35
2022-12-23T16:20:21.568Z,11.37
2022-12-23T16:22:50.393Z,11.37
2022-12-23T16:25:17.760Z,11.36
2022-12-23T16:27:48.117Z,11.41
2022-12-23T16:30:14.878Z,11.39
2022-12-23T16:32:47.061Z,11.41
2022-12-23T16:35:23.386Z,11.41
2022-12-23T16:37:51.416Z,11.43
2022-12-23T16:40:19.421Z,11.46
2022-12-23T16:42:45.962Z,11.46
2022-12-23T16:45:12.997Z,11.46
2022-12-23T16:47:39.481Z,11.48
2022-12-23T16:50:06.436Z,11.47
2022-12-23T16:52:32.941Z,11.52
2022-12-23T16:54:59.525Z,11.54
2022-12-23T16:57:26.020Z,11.49
2022-12-23T16:59:52.515Z,11.51
2022-12-23T17:02:22.401Z,11.53
2022-12-23T17:04:48.982Z,11.54
2022-12-23T17:07:15.518Z,11.56
2022-12-23T17:09:42.072Z,11.58
2022-12-23T17:12:08.676Z,11.56
2022-12-23T17:14:35.379Z,11.57
2022-12-23T17:17:02.032Z,11.58
2022-12-23T17:19:29.270Z,11.59
2022-12-23T17:21:58.232Z,11.58
2022-12-23T17:24:25.869Z,11.61
2022-12-23T17:26:54.199Z,11.60
2022-12-23T17:29:20.803Z,11.61
2022-12-23T17:31:48.265Z,11.64
2022-12-23T17:34:19.251Z,11.64
2022-12-23T17:36:49.848Z,11.65
2022-12-23T17:39:17.170Z,11.66
2022-12-23T17:41:43.726Z,11.66
2022-12-23T17:44:10.410Z,11.68
2022-12-23T17:46:37.120Z,11.68
2022-12-23T17:49:03.678Z,11.68
2022-12-23T17:51:30.228Z,11.68
2022-12-23T17:53:58.295Z,11.68
2022-12-23T17:56:26.223Z,11.68
2022-12-23T17:58:52.776Z,11.67
2022-12-23T18:01:20.755Z,11.66
2022-12-23T18:03:47.332Z,11.68
2022-12-23T18:06:14.607Z,11.65
2022-12-23T18:08:41.347Z,11.65
2022-12-23T18:11:07.970Z,11.67
2022-12-23T18:13:34.551Z,11.64
2022-12-23T18:16:01.090Z,11.63
2022-12-23T18:18:37.734Z,11.66
2022-12-23T18:21:11.431Z,11.67
2022-12-23T18:23:38.091Z,11.67
2022-12-23T18:26:04.622Z,11.67
2022-12-23T18:28:31.229Z,11.67
2022-12-23T18:30:57.923Z,11.67
2022-12-23T18:33:28.472Z,11.67
2022-12-23T18:35:55.006Z,11.68
2022-12-23T18:38:21.550Z,11.68
2022-12-23T18:40:49.690Z,11.68
2022-12-23T18:43:20.144Z,11.69
2022-12-23T18:45:52.490Z,11.67
2022-12-23T18:48:19.903Z,11.66
2022-12-23T18:50:46.723Z,11.67
2022-12-23T18:53:23.424Z,11.66
2022-12-23T18:55:50.684Z,11.67
2022-12-23T18:58:20.502Z,11.68
2022-12-23T19:00:47.622Z,11.69
2022-12-23T19:03:22.055Z,11.71
2022-12-23T19:05:48.968Z,11.71
2022-12-23T19:08:20.288Z,11.69
2022-12-23T19:10:50.901Z,11.69
2022-12-23T19:13:17.656Z,11.69
2022-12-23T19:15:44.377Z,11.69
2022-12-23T19:18:14.480Z,11.70
2022-12-23T19:20:41.773Z,11.68
2022-12-23T19:23:08.402Z,11.67
2022-12-23T19:25:35.033Z,11.67
2022-12-23T19:28:01.651Z,11.66
2022-12-23T19:30:28.239Z,11.68
2022-12-23T19:32:54.960Z,11.69
2022-12-23T19:35:21.580Z,11.68
2022-12-23T19:37:48.659Z,11.67
2022-12-23T19:40:15.237Z,11.67
2022-12-23T19:42:41.802Z,11.66
2022-12-23T19:45:08.924Z,11.66
2022-12-23T19:47:35.681Z,11.65
2022-12-23T19:50:02.410Z,11.66
2022-12-23T19:52:29.143Z,11.65
2022-12-23T19:54:55.761Z,11.65
2022-12-23T19:57:22.855Z,11.64
2022-12-23T19:59:49.374Z,11.62
2022-12-23T20:02:16.862Z,11.61
2022-12-23T20:04:43.627Z,11.62
2022-12-23T20:07:10.428Z,11.62
2022-12-23T20:09:37.155Z,11.63
2022-12-23T20:12:03.868Z,11.65
2022-12-23T20:14:33.898Z,11.66
2022-12-23T20:17:00.844Z,11.66
2022-12-23T20:19:27.723Z,11.67
2022-12-23T20:21:54.289Z,11.66
2022-12-23T20:24:20.840Z,11.66
2022-12-23T20:26:47.632Z,11.66
2022-12-23T20:29:14.348Z,11.62
2022-12-23T20:31:41.235Z,11.64
2022-12-23T20:34:08.789Z,11.64
2022-12-23T20:36:35.922Z,11.63
2022-12-23T20:39:03.375Z,11.63
2022-12-23T20:41:30.378Z,11.61
2022-12-23T20:44:32.425Z,11.61
2022-12-23T20:46:43.709Z,11.60
2022-12-23T20:49:10.489Z,11.56
2022-12-23T20:51:37.111Z,11.57
2022-12-23T20:54:03.644Z,11.54
2022-12-23T20:56:30.577Z,11.55
2022-12-23T20:59:02.495Z,11.54
2022-12-23T21:01:30.432Z,11.51
2022-12-23T21:03:58.009Z,11.51
2022-12-23T21:06:24.846Z,11.48
2022-12-23T21:08:52.480Z,11.45
2022-12-23T21:11:19.511Z,11.44
2022-12-23T21:13:49.255Z,11.42
2022-12-23T21:16:16.201Z,11.38
2022-12-23T21:18:43.965Z,11.38
2022-12-23T21:21:10.599Z,11.37
2022-12-23T21:23:37.857Z,11.35
2022-12-23T21:26:05.915Z,11.34
2022-12-23T21:28:32.540Z,11.32
2022-12-23T21:30:59.101Z,11.30
2022-12-23T21:33:25.976Z,11.33
2022-12-23T21:35:52.668Z,11.32
2022-12-23T21:38:19.372Z,11.34
2022-12-23T21:40:46.026Z,11.27
2022-12-23T21:43:12.616Z,11.26
2022-12-23T21:45:39.179Z,11.24
2022-12-23T21:48:05.691Z,11.25
2022-12-23T21:50:33.153Z,11.27
2022-12-23T21:52:59.735Z,11.30
2022-12-23T21:55:26.407Z,11.33
2022-12-23T21:57:53.120Z,11.30
2022-12-23T22:00:19.699Z,11.30
2022-12-23T22:02:46.235Z,11.32
2022-12-23T22:05:12.879Z,11.35
2022-12-23T22:07:39.425Z,11.36
2022-12-23T22:10:06.519Z,11.36
2022-12-23T22:12:33.398Z,11.36
2022-12-23T22:14:59.943Z,11.40
2022-12-23T22:17:26.543Z,11.38
2022-12-23T22:19:53.195Z,11.39
2022-12-23T22:22:19.797Z,11.41
2022-12-23T22:24:46.389Z,11.38
2022-12-23T22:27:13.111Z,11.37
2022-12-23T22:29:41.471Z,11.39
2022-12-23T22:32:08.073Z,11.38
2022-12-23T22:34:34.930Z,11.39
2022-12-23T22:37:01.522Z,11.38
2022-12-23T22:39:28.172Z,11.38
2022-12-23T22:41:54.674Z,11.36
2022-12-23T22:44:21.706Z,11.34
2022-12-23T22:46:48.472Z,11.26
2022-12-23T22:49:15.392Z,11.23
2022-12-23T22:51:42.139Z,11.24
2022-12-23T22:54:09.254Z,11.25
2022-12-23T22:56:35.924Z,11.25
2022-12-23T22:59:02.527Z,11.21
2022-12-23T23:01:29.806Z,11.20
2022-12-23T23:03:57.656Z,11.18
2022-12-23T23:06:28.427Z,11.19
2022-12-23T23:08:55.242Z,11.18
2022-12-23T23:11:21.894Z,11.16
2022-12-23T23:13:48.659Z,11.19
2022-12-23T23:16:15.186Z,11.21
2022-12-23T23:18:41.840Z,11.22
2022-12-23T23:21:09.402Z,11.24
2022-12-23T23:23:36.014Z,11.24
2022-12-23T23:26:02.639Z,11.23
2022-12-23T23:28:29.159Z,11.21
2022-12-23T23:31:23.925Z,11.21
2022-12-23T23:33:42.219Z,11.14
2022-12-23T23:36:08.875Z,11.15
2022-12-23T23:38:35.756Z,11.15
2022-12-23T23:41:02.359Z,11.19
2022-12-23T23:43:28.924Z,11.19
2022-12-23T23:45:55.598Z,11.20
2022-12-23T23:48:22.271Z,11.21
2022-12-23T23:50:48.853Z,11.20
2022-12-23T23:53:15.750Z,11.21
2022-12-23T23:55:42.388Z,11.22
2022-12-23T23:58:08.954Z,11.21
